createdAt,value
2023-02-27T00:00:54.347Z,98851.19
2023-02-27T00:03:27.630Z,98847.72
2023-02-27T00:05:56.316Z,98841.75
2023-02-27T00:08:24.122Z,98849.53
2023-02-27T00:10:51.332Z,98852.38
2023-02-27T00:13:18.865Z,98851.53
2023-02-27T00:15:48.076Z,98859.72
2023-02-27T00:18:15.676Z,98861.34
2023-02-27T00:20:42.945Z,98862.16
2023-02-27T00:23:10.879Z,98867.50
2023-02-27T00:25:38.124Z,98870.16
2023-02-27T00:28:05.586Z,98870.34
2023-02-27T00:30:33.230Z,98867.84
2023-02-27T00:33:00.743Z,98871.16
2023-02-27T00:35:27.983Z,98865.03
2023-02-27T00:37:55.434Z,98866.88
2023-02-27T00:40:25.290Z,98869.53
2023-02-27T00:42:53.416Z,98862.53
2023-02-27T00:45:20.626Z,98865.84
2023-02-27T00:47:48.389Z,98859.72
2023-02-27T00:50:15.940Z,98863.38
2023-02-27T00:52:43.613Z,98864.22
2023-02-27T00:55:11.112Z,98864.22
2023-02-27T00:57:40.390Z,98857.22
2023-02-27T01:00:09.075Z,98858.91
2023-02-27T01:02:36.692Z,98858.91
2023-02-27T01:05:04.695Z,98858.03
2023-02-27T01:07:32.427Z,98853.75
2023-02-27T01:10:00.728Z,98857.41
2023-02-27T01:12:28.278Z,98864.56
2023-02-27T01:14:55.508Z,98862.72
2023-02-27T01:17:23.593Z,98861.72
2023-02-27T01:19:50.942Z,98859.41
2023-02-27T01:22:18.772Z,98862.91
2023-02-27T01:24:46.399Z,98861.25
2023-02-27T01:27:13.919Z,98862.25
2023-02-27T01:29:41.410Z,98864.06
2023-02-27T01:32:09.141Z,98868.78
2023-02-27T01:34:36.463Z,98873.25
2023-02-27T01:37:04.231Z,98876.53
2023-02-27T01:39:32.898Z,98885.34
2023-02-27T01:42:01.043Z,98882.06
2023-02-27T01:44:30.051Z,98889.84
2023-02-27T01:46:57.878Z,98891.84
2023-02-27T01:49:30.500Z,98888.38
2023-02-27T01:52:05.633Z,98893.84
2023-02-27T01:54:36.304Z,98891.84
2023-02-27T01:57:06.610Z,98902.47
2023-02-27T01:59:41.046Z,98902.69
2023-02-27T02:02:26.877Z,98902.84
2023-02-27T02:04:54.917Z,98908.16
2023-02-27T02:07:25.223Z,98898.34
2023-02-27T02:09:56.493Z,98904.47
2023-02-27T02:12:28.835Z,98907.13
2023-02-27T02:14:56.066Z,98913.09
2023-02-27T02:17:45.397Z,98921.94
2023-02-27T02:20:31.556Z,98916.63
2023-02-27T02:23:11.685Z,98915.75
2023-02-27T02:26:06.729Z,98922.91
2023-02-27T02:29:02.198Z,98929.06
2023-02-27T02:31:38.365Z,98931.91
2023-02-27T02:34:24.142Z,98935.38
2023-02-27T02:37:00.134Z,98936.38
2023-02-27T02:39:32.856Z,98943.34
2023-02-27T02:42:18.526Z,98937.22
2023-02-27T02:44:54.652Z,98944.34
2023-02-27T02:47:30.576Z,98949.00
2023-02-27T02:50:08.623Z,98947.38
2023-02-27T02:52:44.014Z,98952.69
2023-02-27T02:55:30.725Z,98950.03
2023-02-27T02:58:14.330Z,98945.69
2023-02-27T03:00:49.386Z,98944.06
2023-02-27T03:03:29.696Z,98936.75
2023-02-27T03:06:03.630Z,98938.75
2023-02-27T03:08:36.256Z,98941.25
2023-02-27T03:11:04.925Z,98940.38
2023-02-27T03:13:41.290Z,98940.38
2023-02-27T03:16:25.970Z,98943.69
2023-02-27T03:19:04.408Z,98943.69
2023-02-27T03:21:55.375Z,98942.88
2023-02-27T03:24:39.768Z,98944.88
2023-02-27T03:27:09.144Z,98942.44
2023-02-27T03:29:48.658Z,98937.94
2023-02-27T03:32:22.744Z,98943.41
2023-02-27T03:34:50.333Z,98949.75
2023-02-27T03:37:39.408Z,98950.41
2023-02-27T03:40:19.838Z,98954.69
2023-02-27T03:42:54.742Z,98960.38
2023-02-27T03:45:35.529Z,98957.72
2023-02-27T03:48:04.547Z,98958.72
2023-02-27T03:50:33.587Z,98961.38
2023-02-27T03:53:06.449Z,98959.53
2023-02-27T03:55:37.821Z,98959.53
2023-02-27T03:58:05.883Z,98963.03
2023-02-27T04:00:33.706Z,98964.03
2023-02-27T04:03:02.331Z,98962.38
2023-02-27T04:05:29.900Z,98963.19
2023-02-27T04:08:27.522Z,98967.69
2023-02-27T04:11:25.487Z,98968.50
2023-02-27T04:14:12.389Z,98978.31
2023-02-27T04:16:54.700Z,98985.28
2023-02-27T04:19:22.119Z,98984.28
2023-02-27T04:22:17.018Z,98987.44
2023-02-27T04:25:11.380Z,99001.59
2023-02-27T04:28:00.621Z,98998.06
2023-02-27T04:30:32.249Z,98998.06
2023-02-27T04:33:30.059Z,98999.91
2023-02-27T04:36:10.256Z,99011.38
2023-02-27T04:38:48.088Z,99008.09
2023-02-27T04:41:27.215Z,99002.78
2023-02-27T04:43:57.071Z,98998.28
2023-02-27T04:46:28.833Z,99005.22
2023-02-27T04:49:08.773Z,99001.91
2023-02-27T04:51:44.745Z,99012.53
2023-02-27T04:54:21.305Z,99017.84
2023-02-27T04:56:54.052Z,99012.53
2023-02-27T04:59:36.099Z,99013.41
2023-02-27T05:02:13.214Z,99010.09
2023-02-27T05:04:44.469Z,99011.25
2023-02-27T05:07:18.805Z,99012.91
2023-02-27T05:10:15.301Z,99012.91
2023-02-27T05:12:53.050Z,99020.88
2023-02-27T05:15:27.065Z,99017.41
2023-02-27T05:18:03.339Z,99031.50
2023-02-27T05:20:55.754Z,99025.19
2023-02-27T05:23:50.787Z,99034.00
2023-02-27T05:26:39.834Z,99041.13
2023-02-27T05:29:36.124Z,99038.66
2023-02-27T05:32:24.482Z,99046.44
2023-02-27T05:35:00.703Z,99041.13
2023-02-27T05:37:48.151Z,99043.13
2023-02-27T05:40:22.263Z,99050.44
2023-02-27T05:43:03.167Z,99049.63
2023-02-27T05:45:34.621Z,99052.28
2023-02-27T05:48:11.058Z,99053.28
2023-02-27T05:50:40.213Z,99063.25
2023-02-27T05:53:11.187Z,99070.41
2023-02-27T05:55:43.316Z,99064.06
2023-02-27T05:58:30.361Z,99065.09
2023-02-27T06:01:01.352Z,99065.91
2023-02-27T06:03:31.336Z,99069.41
2023-02-27T06:06:01.146Z,99067.75
2023-02-27T06:08:28.624Z,99075.72
2023-02-27T06:10:56.162Z,99072.41
2023-02-27T06:13:24.468Z,99075.06
2023-02-27T06:15:53.076Z,99079.72
2023-02-27T06:18:20.471Z,99079.72
2023-02-27T06:20:48.139Z,99079.88
2023-02-27T06:23:15.450Z,99083.34
2023-02-27T06:25:43.432Z,99078.88
2023-02-27T06:28:11.565Z,99078.03
2023-02-27T06:30:39.156Z,99083.56
2023-02-27T06:33:06.508Z,99080.03
2023-02-27T06:35:34.345Z,99080.03
2023-02-27T06:38:01.605Z,99087.03
2023-02-27T06:40:29.142Z,99086.84
2023-02-27T06:42:56.516Z,99093.16
2023-02-27T06:45:24.326Z,99091.53
2023-02-27T06:47:51.611Z,99090.66
2023-02-27T06:50:19.193Z,99097.66
2023-02-27T06:52:46.464Z,99095.97
2023-02-27T06:55:19.848Z,99095.97
2023-02-27T06:57:47.664Z,99097.97
2023-02-27T07:00:16.695Z,99095.97
2023-02-27T07:02:43.961Z,99106.59
2023-02-27T07:05:14.558Z,99103.28
2023-02-27T07:07:42.767Z,99111.09
2023-02-27T07:10:12.918Z,99111.09
2023-02-27T07:12:40.729Z,99110.28
2023-02-27T07:15:11.044Z,99105.94
2023-02-27T07:17:39.468Z,99109.47
2023-02-27T07:20:08.975Z,99110.28
2023-02-27T07:22:37.291Z,99113.91
2023-02-27T07:25:05.230Z,99112.28
2023-02-27T07:27:32.550Z,99113.25
2023-02-27T07:30:01.051Z,99118.41
2023-02-27T07:32:28.306Z,99117.59
2023-02-27T07:34:55.834Z,99118.41
2023-02-27T07:37:23.050Z,99126.22
2023-02-27T07:39:51.384Z,99122.75
2023-02-27T07:42:18.591Z,99127.88
2023-02-27T07:44:46.213Z,99127.88
2023-02-27T07:47:13.429Z,99128.88
2023-02-27T07:49:41.435Z,99126.22
2023-02-27T07:52:08.685Z,99126.22
2023-02-27T07:54:37.562Z,99129.84
2023-02-27T07:57:05.279Z,99125.41
2023-02-27T07:59:33.143Z,99133.16
2023-02-27T08:02:00.451Z,99138.47
2023-02-27T08:04:27.984Z,99142.97
2023-02-27T08:06:55.215Z,99145.47
2023-02-27T08:09:23.544Z,99143.81
2023-02-27T08:11:50.741Z,99138.69
2023-02-27T08:14:18.215Z,99143.81
2023-02-27T08:16:45.506Z,99152.78
2023-02-27T08:19:14.543Z,99153.75
2023-02-27T08:21:42.044Z,99156.09
2023-02-27T08:24:09.551Z,99165.91
2023-02-27T08:26:36.823Z,99166.72
2023-02-27T08:29:04.341Z,99168.72
2023-02-27T08:31:31.706Z,99173.03
2023-02-27T08:34:09.465Z,99172.34
2023-02-27T08:36:38.102Z,99173.88
2023-02-27T08:39:07.599Z,99180.16
2023-02-27T08:41:35.041Z,99182.00
2023-02-27T08:44:02.986Z,99189.16
2023-02-27T08:46:30.524Z,99195.28
2023-02-27T08:48:58.101Z,99190.78
2023-02-27T08:51:25.542Z,99191.63
2023-02-27T08:53:55.905Z,99193.28
2023-02-27T08:56:23.114Z,99189.63
2023-02-27T08:58:50.699Z,99194.13
2023-02-27T09:01:18.493Z,99192.28
2023-02-27T09:03:46.431Z,99206.38
2023-02-27T09:06:13.618Z,99205.56
2023-02-27T09:08:41.084Z,99207.41
2023-02-27T09:11:08.556Z,99210.06
2023-02-27T09:13:36.069Z,99214.34
2023-02-27T09:16:03.397Z,99219.84
2023-02-27T09:18:30.999Z,99214.53
2023-02-27T09:20:58.355Z,99220.69
2023-02-27T09:23:25.879Z,99218.19
2023-02-27T09:25:53.127Z,99217.88
2023-02-27T09:28:21.432Z,99218.69
2023-02-27T09:30:48.669Z,99217.50
2023-02-27T09:33:16.274Z,99213.88
2023-02-27T09:35:43.470Z,99213.03
2023-02-27T09:38:12.222Z,99210.19
2023-02-27T09:40:42.172Z,99219.19
2023-02-27T09:43:16.412Z,99215.69
2023-02-27T09:45:46.048Z,99224.50
2023-02-27T09:48:27.889Z,99217.50
2023-02-27T09:50:55.512Z,99221.19
2023-02-27T09:53:41.094Z,99212.56
2023-02-27T09:56:17.257Z,99220.16
2023-02-27T09:58:50.687Z,99213.03
2023-02-27T10:01:33.000Z,99219.19
2023-02-27T10:04:16.241Z,99217.34
2023-02-27T10:07:06.981Z,99217.19
2023-02-27T10:09:40.869Z,99216.34
2023-02-27T10:12:17.101Z,99221.66
2023-02-27T10:14:59.456Z,99222.50
2023-02-27T10:17:41.411Z,99224.16
2023-02-27T10:20:17.553Z,99223.13
2023-02-27T10:22:47.595Z,99223.31
2023-02-27T10:25:30.790Z,99231.09
2023-02-27T10:28:09.452Z,99230.28
2023-02-27T10:30:37.109Z,99234.78
2023-02-27T10:33:15.698Z,99235.78
2023-02-27T10:35:45.384Z,99227.81
2023-02-27T10:38:21.422Z,99220.84
2023-02-27T10:40:49.390Z,99221.66
2023-02-27T10:43:19.127Z,99225.16
2023-02-27T10:45:47.179Z,99223.31
2023-02-27T10:48:15.397Z,99222.31
2023-02-27T10:50:45.414Z,99217.81
2023-02-27T10:53:27.145Z,99220.47
2023-02-27T10:56:04.451Z,99214.34
2023-02-27T10:58:35.088Z,99228.28
2023-02-27T11:01:06.071Z,99228.44
2023-02-27T11:03:35.432Z,99230.47
2023-02-27T11:06:20.737Z,99229.47
2023-02-27T11:09:23.155Z,99232.13
2023-02-27T11:11:51.729Z,99237.59
2023-02-27T11:14:33.084Z,99237.44
2023-02-27T11:17:02.642Z,99233.13
2023-02-27T11:19:29.802Z,99229.47
2023-02-27T11:22:07.388Z,99224.16
2023-02-27T11:24:34.791Z,99229.47
2023-02-27T11:27:17.771Z,99225.63
2023-02-27T11:29:58.623Z,99225.63
2023-02-27T11:32:44.736Z,99227.47
2023-02-27T11:35:21.356Z,99229.13
2023-02-27T11:37:51.101Z,99231.59
2023-02-27T11:40:21.071Z,99230.44
2023-02-27T11:42:55.015Z,99228.78
2023-02-27T11:46:10.351Z,99225.97
2023-02-27T11:48:31.083Z,99223.47
2023-02-27T11:51:08.541Z,99223.13
2023-02-27T11:54:07.317Z,99220.47
2023-02-27T11:56:39.594Z,99231.75
2023-02-27T11:59:25.281Z,99226.78
2023-02-27T12:01:55.790Z,99230.44
2023-02-27T12:04:33.681Z,99233.09
2023-02-27T12:07:38.708Z,99229.63
2023-02-27T12:10:08.948Z,99232.44
2023-02-27T12:12:51.324Z,99231.59
2023-02-27T12:15:36.398Z,99232.44
2023-02-27T12:18:06.770Z,99236.94
2023-02-27T12:20:57.569Z,99231.78
2023-02-27T12:24:03.078Z,99235.28
2023-02-27T12:26:45.925Z,99243.72
2023-02-27T12:29:38.978Z,99242.06
2023-02-27T12:32:42.324Z,99243.06
2023-02-27T12:35:27.819Z,99243.06
2023-02-27T12:37:56.681Z,99240.75
2023-02-27T12:40:31.250Z,99254.88
2023-02-27T12:43:27.898Z,99254.03
2023-02-27T12:46:23.198Z,99260.34
2023-02-27T12:49:28.114Z,99260.34
2023-02-27T12:52:01.360Z,99265.66
2023-02-27T12:54:59.384Z,99261.34
2023-02-27T12:57:26.529Z,99271.97
2023-02-27T13:00:07.154Z,99264.00
2023-02-27T13:02:45.735Z,99264.81
2023-02-27T13:05:36.735Z,99260.34
2023-02-27T13:08:12.091Z,99274.28
2023-02-27T13:10:48.880Z,99269.97
2023-02-27T13:13:38.739Z,99270.66
2023-02-27T13:16:17.560Z,99273.31
2023-02-27T13:19:05.580Z,99274.13
2023-02-27T13:21:45.130Z,99279.44
2023-02-27T13:24:24.227Z,99274.94
2023-02-27T13:27:19.471Z,99276.63
2023-02-27T13:29:59.893Z,99276.78
2023-02-27T13:32:43.966Z,99273.31
2023-02-27T13:35:18.028Z,99276.94
2023-02-27T13:37:55.170Z,99280.59
2023-02-27T13:40:36.533Z,99275.28
2023-02-27T13:43:25.706Z,99276.13
2023-02-27T13:46:01.817Z,99279.94
2023-02-27T13:48:43.725Z,99271.97
2023-02-27T13:51:35.996Z,99282.59
2023-02-27T13:54:18.366Z,99287.09
2023-02-27T13:56:54.377Z,99286.28
2023-02-27T13:59:26.365Z,99285.41
2023-02-27T14:02:11.015Z,99282.75
2023-02-27T14:04:48.302Z,99287.09
2023-02-27T14:07:23.830Z,99288.06
2023-02-27T14:10:00.188Z,99289.91
2023-02-27T14:12:44.480Z,99286.28
2023-02-27T14:15:22.422Z,99289.91
2023-02-27T14:18:09.638Z,99293.59
2023-02-27T14:20:41.990Z,99293.59
2023-02-27T14:23:15.086Z,99299.56
2023-02-27T14:26:16.335Z,99290.72
2023-02-27T14:29:02.147Z,99295.22
2023-02-27T14:31:32.751Z,99299.56
2023-02-27T14:34:05.756Z,99300.53
2023-02-27T14:36:40.867Z,99305.03
2023-02-27T14:39:21.251Z,99310.34
2023-02-27T14:42:24.315Z,99305.84
2023-02-27T14:44:52.866Z,99317.31
2023-02-27T14:47:45.641Z,99313.16
2023-02-27T14:50:34.060Z,99313.97
2023-02-27T14:53:02.393Z,99327.25
2023-02-27T14:55:34.715Z,99327.59
2023-02-27T14:58:19.046Z,99330.44
2023-02-27T15:00:55.616Z,99331.44
2023-02-27T15:03:27.601Z,99338.41
2023-02-27T15:05:59.441Z,99330.28
2023-02-27T15:08:31.977Z,99328.78
2023-02-27T15:11:00.800Z,99334.09
2023-02-27T15:13:48.471Z,99346.72
2023-02-27T15:16:31.194Z,99340.38
2023-02-27T15:19:03.514Z,99344.06
2023-02-27T15:21:38.106Z,99350.19
2023-02-27T15:24:08.800Z,99345.22
2023-02-27T15:26:39.962Z,99346.03
2023-02-27T15:29:08.658Z,99348.03
2023-02-27T15:31:36.033Z,99351.50
2023-02-27T15:34:04.259Z,99358.66
2023-02-27T15:36:35.180Z,99354.31
2023-02-27T15:39:27.171Z,99353.34
2023-02-27T15:42:02.938Z,99358.66
2023-02-27T15:44:31.926Z,99362.28
2023-02-27T15:47:02.390Z,99360.66
2023-02-27T15:49:30.197Z,99355.34
2023-02-27T15:52:12.359Z,99367.94
2023-02-27T15:54:54.130Z,99373.25
2023-02-27T15:57:23.092Z,99376.94
2023-02-27T15:59:52.312Z,99372.59
2023-02-27T16:02:29.898Z,99377.22
2023-02-27T16:04:58.828Z,99382.53
2023-02-27T16:07:26.914Z,99383.22
2023-02-27T16:10:03.063Z,99391.19
2023-02-27T16:12:36.944Z,99385.34
2023-02-27T16:15:36.343Z,99389.03
2023-02-27T16:18:27.991Z,99398.81
2023-02-27T16:21:08.609Z,99395.50
2023-02-27T16:23:35.884Z,99399.13
2023-02-27T16:26:15.582Z,99394.66
2023-02-27T16:29:15.185Z,99412.41
2023-02-27T16:31:56.959Z,99407.25
2023-02-27T16:34:45.473Z,99406.41
2023-02-27T16:37:21.236Z,99411.72
2023-02-27T16:39:52.281Z,99408.38
2023-02-27T16:42:21.055Z,99422.50
2023-02-27T16:44:48.382Z,99417.00
2023-02-27T16:47:15.870Z,99419.84
2023-02-27T16:49:44.420Z,99432.94
2023-02-27T16:52:12.335Z,99418.03
2023-02-27T16:54:42.065Z,99424.00
2023-02-27T16:57:10.679Z,99434.63
2023-02-27T16:59:40.451Z,99436.00
2023-02-27T17:02:13.224Z,99437.66
2023-02-27T17:04:44.077Z,99444.47
2023-02-27T17:07:15.836Z,99435.34
2023-02-27T17:09:44.848Z,99442.31
2023-02-27T17:12:12.787Z,99435.34
2023-02-27T17:14:40.034Z,99444.81
2023-02-27T17:17:07.654Z,99441.97
2023-02-27T17:19:34.987Z,99450.63
2023-02-27T17:22:03.035Z,99452.31
2023-02-27T17:24:30.376Z,99447.00
2023-02-27T17:26:57.905Z,99458.13
2023-02-27T17:29:25.343Z,99457.28
2023-02-27T17:31:52.957Z,99448.31
2023-02-27T17:34:20.341Z,99458.63
2023-02-27T17:36:48.737Z,99461.13
2023-02-27T17:39:16.798Z,99456.78
2023-02-27T17:41:44.335Z,99458.78
2023-02-27T17:44:12.035Z,99463.25
2023-02-27T17:46:40.619Z,99467.91
2023-02-27T17:49:09.525Z,99472.91
2023-02-27T17:51:37.885Z,99474.56
2023-02-27T17:54:08.359Z,99472.91
2023-02-27T17:56:37.039Z,99474.56
2023-02-27T17:59:05.400Z,99473.41
2023-02-27T18:01:33.324Z,99479.56
2023-02-27T18:04:00.734Z,99477.72
2023-02-27T18:06:28.673Z,99480.53
2023-02-27T18:08:57.078Z,99484.03
2023-02-27T18:11:24.594Z,99478.56
2023-02-27T18:13:52.115Z,99479.22
2023-02-27T18:16:21.903Z,99488.84
2023-02-27T18:18:50.492Z,99494.16
2023-02-27T18:21:21.198Z,99498.16
2023-02-27T18:23:50.609Z,99502.50
2023-02-27T18:26:29.882Z,99501.47
2023-02-27T18:29:00.762Z,99502.34
2023-02-27T18:31:31.797Z,99501.19
2023-02-27T18:34:00.040Z,99512.78
2023-02-27T18:36:29.253Z,99510.94
2023-02-27T18:38:59.140Z,99518.78
2023-02-27T18:41:27.751Z,99510.81
2023-02-27T18:43:55.563Z,99519.59
2023-02-27T18:46:23.193Z,99519.59
2023-02-27T18:48:51.130Z,99524.91
2023-02-27T18:51:18.921Z,99529.41
2023-02-27T18:53:48.352Z,99524.91
2023-02-27T18:56:18.648Z,99523.94
2023-02-27T18:58:46.260Z,99523.25
2023-02-27T19:01:26.224Z,99532.06
2023-02-27T19:03:56.303Z,99528.91
2023-02-27T19:06:23.975Z,99535.06
2023-02-27T19:08:51.637Z,99532.41
2023-02-27T19:11:25.270Z,99534.03
2023-02-27T19:13:53.458Z,99525.41
2023-02-27T19:16:21.173Z,99538.69
2023-02-27T19:18:48.584Z,99533.38
2023-02-27T19:21:18.447Z,99542.03
2023-02-27T19:23:45.729Z,99541.38
2023-02-27T19:26:13.303Z,99544.38
2023-02-27T19:28:41.640Z,99545.38
2023-02-27T19:31:11.261Z,99544.19
2023-02-27T19:33:39.136Z,99539.06
2023-02-27T19:36:12.349Z,99548.00
2023-02-27T19:38:40.150Z,99546.34
2023-02-27T19:41:10.983Z,99549.00
2023-02-27T19:43:40.639Z,99553.16
2023-02-27T19:46:14.415Z,99552.34
2023-02-27T19:48:42.834Z,99554.00
2023-02-27T19:51:14.739Z,99555.66
2023-02-27T19:53:45.261Z,99554.66
2023-02-27T19:56:18.199Z,99562.63
2023-02-27T19:58:46.626Z,99556.34
2023-02-27T20:01:28.738Z,99561.47
2023-02-27T20:03:56.312Z,99561.31
2023-02-27T20:06:26.114Z,99572.63
2023-02-27T20:08:54.245Z,99577.78
2023-02-27T20:11:21.790Z,99576.78
2023-02-27T20:13:50.946Z,99577.59
2023-02-27T20:16:22.099Z,99572.13
2023-02-27T20:18:50.042Z,99573.97
2023-02-27T20:21:21.099Z,99575.81
2023-02-27T20:23:51.497Z,99579.28
2023-02-27T20:26:28.357Z,99576.78
2023-02-27T20:29:00.513Z,99584.59
2023-02-27T20:31:31.023Z,99583.94
2023-02-27T20:34:01.012Z,99582.78
2023-02-27T20:36:29.049Z,99581.28
2023-02-27T20:38:56.335Z,99584.75
2023-02-27T20:41:28.238Z,99585.59
2023-02-27T20:43:57.192Z,99586.25
2023-02-27T20:46:28.475Z,99583.59
2023-02-27T20:49:00.580Z,99586.25
2023-02-27T20:51:31.133Z,99601.22
2023-02-27T20:54:00.076Z,99605.88
2023-02-27T20:56:33.465Z,99600.56
2023-02-27T20:59:03.437Z,99600.56
2023-02-27T21:01:31.387Z,99605.88
2023-02-27T21:03:59.667Z,99606.84
2023-02-27T21:06:27.438Z,99596.06
2023-02-27T21:08:56.592Z,99598.06
2023-02-27T21:11:29.781Z,99597.06
2023-02-27T21:14:02.019Z,99598.88
2023-02-27T21:16:30.199Z,99593.56
2023-02-27T21:18:57.944Z,99601.53
2023-02-27T21:21:31.810Z,99601.53
2023-02-27T21:23:59.764Z,99594.72
2023-02-27T21:26:33.253Z,99597.22
2023-02-27T21:29:08.854Z,99591.09
2023-02-27T21:31:37.548Z,99596.41
2023-02-27T21:34:08.476Z,99583.94
2023-02-27T21:36:42.215Z,99594.56
2023-02-27T21:39:16.694Z,99601.53
2023-02-27T21:41:45.690Z,99605.88
2023-02-27T21:44:15.441Z,99601.38
2023-02-27T21:46:43.106Z,99604.19
2023-02-27T21:49:16.836Z,99604.53
2023-02-27T21:51:44.714Z,99611.50
2023-02-27T21:54:13.147Z,99613.47
2023-02-27T21:56:42.118Z,99612.81
2023-02-27T21:59:09.701Z,99608.34
2023-02-27T22:01:38.276Z,99610.16
2023-02-27T22:04:06.058Z,99605.16
2023-02-27T22:06:34.392Z,99614.16
2023-02-27T22:09:04.961Z,99614.16
2023-02-27T22:11:34.280Z,99608.81
2023-02-27T22:14:03.092Z,99605.16
2023-02-27T22:16:30.551Z,99612.47
2023-02-27T22:18:57.900Z,99607.16
2023-02-27T22:21:27.247Z,99601.84
2023-02-27T22:23:56.810Z,99600.19
2023-02-27T22:26:28.033Z,99605.50
2023-02-27T22:28:57.257Z,99600.19
2023-02-27T22:31:31.389Z,99605.50
2023-02-27T22:34:02.169Z,99612.81
2023-02-27T22:36:31.188Z,99614.59
2023-02-27T22:38:59.265Z,99609.28
2023-02-27T22:41:30.667Z,99612.13
2023-02-27T22:44:00.183Z,99625.41
2023-02-27T22:46:33.496Z,99620.09
2023-02-27T22:49:21.940Z,99625.41
2023-02-27T22:51:51.624Z,99618.41
2023-02-27T22:54:21.194Z,99620.41
2023-02-27T22:56:53.246Z,99617.75
2023-02-27T22:59:22.135Z,99615.94
2023-02-27T23:01:50.498Z,99613.44
2023-02-27T23:04:18.344Z,99617.94
2023-02-27T23:06:46.001Z,99613.44
2023-02-27T23:09:16.985Z,99619.56
2023-02-27T23:11:45.002Z,99620.72
2023-02-27T23:14:13.178Z,99620.72
2023-02-27T23:16:45.258Z,99622.56
2023-02-27T23:19:17.303Z,99623.38
2023-02-27T23:21:45.124Z,99624.38
2023-02-27T23:24:14.374Z,99630.00
2023-02-27T23:26:47.174Z,99623.72
2023-02-27T23:29:14.986Z,99617.41
2023-02-27T23:31:43.274Z,99624.69
2023-02-27T23:34:10.570Z,99623.03
2023-02-27T23:36:41.574Z,99623.03
2023-02-27T23:39:09.291Z,99626.69
2023-02-27T23:41:37.646Z,99627.34
2023-02-27T23:44:04.904Z,99627.69
2023-02-27T23:46:32.398Z,99632.00
2023-02-27T23:49:00.833Z,99632.00
2023-02-27T23:51:30.459Z,99627.69
2023-02-27T23:53:58.534Z,99627.69
2023-02-27T23:56:29.283Z,99635.66
2023-02-27T23:59:05.602Z,99633.16
